Lincoln, Illinois
Current Conditions -  °F | °C
As of 12:55 PM on Thursday 23 Oct 2014 (Local Time) from KAAA Reporting Station
Clear Clear  
Wind Chill: 58°   Ceiling: Unl
Heat Index: 58°   Visibility: 10mi
Dew Point: 44°   Wind: 3mph
Humidity: 59%   Direction: 200°SSW
Pressure: 30.17"   Gusts: NA
Location:  40.15°N, 89.36°W
Report Text: KAAA 231755Z AUTO 20003KT 10SM CLR 15/07 A3017 RMK AO2 T01450065 10145 20024
Loading
Personal Weather Stations






























Interactive Weather Map
Tropical Storm Tracking
New forecast layout! Learn more

10-Day Weather Forecast

Advertisements
Track Severe Weather on mobile